sensor_id;sensor_type;location;lat;lon;timestamp;P1;durP1;ratioP1;P2;durP2;ratioP2
75191;SDS011;63771;52.580;9.734;2023-07-28T00:02:12;2.25;;;1.98;;
75191;SDS011;63771;52.580;9.734;2023-07-28T00:04:37;3.10;;;2.00;;
75191;SDS011;63771;52.580;9.734;2023-07-28T00:07:03;3.35;;;2.25;;
75191;SDS011;63771;52.580;9.734;2023-07-28T00:09:29;2.60;;;2.08;;
75191;SDS011;63771;52.580;9.734;2023-07-28T00:11:56;2.10;;;1.60;;
75191;SDS011;63771;52.580;9.734;2023-07-28T00:14:22;1.90;;;1.80;;
75191;SDS011;63771;52.580;9.734;2023-07-28T00:16:49;2.10;;;2.00;;
75191;SDS011;63771;52.580;9.734;2023-07-28T00:19:15;1.50;;;1.40;;
75191;SDS011;63771;52.580;9.734;2023-07-28T00:21:40;2.87;;;2.00;;
75191;SDS011;63771;52.580;9.734;2023-07-28T00:24:05;2.03;;;1.83;;
75191;SDS011;63771;52.580;9.734;2023-07-28T00:26:31;1.70;;;1.60;;
75191;SDS011;63771;52.580;9.734;2023-07-28T00:28:56;2.27;;;2.07;;
75191;SDS011;63771;52.580;9.734;2023-07-28T00:31:23;2.20;;;2.10;;
75191;SDS011;63771;52.580;9.734;2023-07-28T00:33:48;2.95;;;2.75;;
75191;SDS011;63771;52.580;9.734;2023-07-28T00:36:13;2.20;;;1.77;;
75191;SDS011;63771;52.580;9.734;2023-07-28T00:38:38;2.20;;;2.00;;
75191;SDS011;63771;52.580;9.734;2023-07-28T00:41:04;4.00;;;2.00;;
75191;SDS011;63771;52.580;9.734;2023-07-28T00:43:29;1.70;;;1.60;;
75191;SDS011;63771;52.580;9.734;2023-07-28T00:45:54;3.63;;;2.00;;
75191;SDS011;63771;52.580;9.734;2023-07-28T00:48:20;2.08;;;1.92;;
75191;SDS011;63771;52.580;9.734;2023-07-28T00:50:46;3.17;;;2.00;;
75191;SDS011;63771;52.580;9.734;2023-07-28T00:53:13;4.53;;;2.10;;
75191;SDS011;63771;52.580;9.734;2023-07-28T00:55:39;2.67;;;2.05;;
75191;SDS011;63771;52.580;9.734;2023-07-28T00:58:04;2.03;;;1.92;;
75191;SDS011;63771;52.580;9.734;2023-07-28T01:00:30;2.30;;;2.07;;
75191;SDS011;63771;52.580;9.734;2023-07-28T01:02:55;2.05;;;1.95;;
75191;SDS011;63771;52.580;9.734;2023-07-28T01:05:22;1.90;;;1.80;;
75191;SDS011;63771;52.580;9.734;2023-07-28T01:08:06;2.13;;;2.03;;
75191;SDS011;63771;52.580;9.734;2023-07-28T01:10:39;3.50;;;1.70;;
75191;SDS011;63771;52.580;9.734;2023-07-28T01:13:05;2.70;;;2.50;;
75191;SDS011;63771;52.580;9.734;2023-07-28T01:15:31;2.42;;;1.80;;
75191;SDS011;63771;52.580;9.734;2023-07-28T01:17:56;5.33;;;1.87;;
75191;SDS011;63771;52.580;9.734;2023-07-28T01:20:22;4.17;;;2.30;;
75191;SDS011;63771;52.580;9.734;2023-07-28T01:22:57;2.22;;;2.13;;
75191;SDS011;63771;52.580;9.734;2023-07-28T01:26:08;2.13;;;1.80;;
75191;SDS011;63771;52.580;9.734;2023-07-28T01:28:35;2.28;;;2.10;;
75191;SDS011;63771;52.580;9.734;2023-07-28T01:31:02;2.20;;;2.10;;
75191;SDS011;63771;52.580;9.734;2023-07-28T01:33:28;3.67;;;2.42;;
75191;SDS011;63771;52.580;9.734;2023-07-28T01:35:54;2.30;;;2.15;;
75191;SDS011;63771;52.580;9.734;2023-07-28T01:38:19;2.80;;;2.60;;
75191;SDS011;63771;52.580;9.734;2023-07-28T01:40:44;2.50;;;2.10;;
75191;SDS011;63771;52.580;9.734;2023-07-28T01:43:10;1.83;;;1.73;;
75191;SDS011;63771;52.580;9.734;2023-07-28T01:45:35;2.67;;;2.40;;
75191;SDS011;63771;52.580;9.734;2023-07-28T01:48:00;2.38;;;2.17;;
75191;SDS011;63771;52.580;9.734;2023-07-28T01:50:26;2.42;;;2.17;;
75191;SDS011;63771;52.580;9.734;2023-07-28T01:52:51;2.63;;;2.30;;
75191;SDS011;63771;52.580;9.734;2023-07-28T01:55:16;3.17;;;2.87;;
75191;SDS011;63771;52.580;9.734;2023-07-28T01:57:49;2.20;;;2.10;;
75191;SDS011;63771;52.580;9.734;2023-07-28T02:00:16;3.15;;;2.85;;
75191;SDS011;63771;52.580;9.734;2023-07-28T02:02:42;3.08;;;2.17;;
75191;SDS011;63771;52.580;9.734;2023-07-28T02:05:07;2.63;;;2.42;;
75191;SDS011;63771;52.580;9.734;2023-07-28T02:07:32;3.28;;;2.30;;
75191;SDS011;63771;52.580;9.734;2023-07-28T02:09:58;3.50;;;2.53;;
75191;SDS011;63771;52.580;9.734;2023-07-28T02:12:23;2.80;;;2.50;;
75191;SDS011;63771;52.580;9.734;2023-07-28T02:14:48;3.03;;;2.80;;
75191;SDS011;63771;52.580;9.734;2023-07-28T02:17:14;2.77;;;2.53;;
75191;SDS011;63771;52.580;9.734;2023-07-28T02:19:39;4.87;;;2.47;;
75191;SDS011;63771;52.580;9.734;2023-07-28T02:22:04;3.53;;;2.60;;
75191;SDS011;63771;52.580;9.734;2023-07-28T02:24:30;3.15;;;2.88;;
75191;SDS011;63771;52.580;9.734;2023-07-28T02:26:55;4.80;;;3.17;;
75191;SDS011;63771;52.580;9.734;2023-07-28T02:29:21;8.37;;;3.10;;
75191;SDS011;63771;52.580;9.734;2023-07-28T02:31:46;5.75;;;3.47;;
75191;SDS011;63771;52.580;9.734;2023-07-28T02:34:11;3.90;;;3.35;;
75191;SDS011;63771;52.580;9.734;2023-07-28T02:36:37;3.50;;;2.97;;
75191;SDS011;63771;52.580;9.734;2023-07-28T02:39:02;6.22;;;3.47;;
75191;SDS011;63771;52.580;9.734;2023-07-28T02:41:27;3.90;;;3.10;;
75191;SDS011;63771;52.580;9.734;2023-07-28T02:43:53;4.20;;;3.80;;
75191;SDS011;63771;52.580;9.734;2023-07-28T02:46:18;5.47;;;3.30;;
75191;SDS011;63771;52.580;9.734;2023-07-28T02:48:43;4.77;;;3.17;;
75191;SDS011;63771;52.580;9.734;2023-07-28T02:51:09;3.60;;;3.30;;
75191;SDS011;63771;52.580;9.734;2023-07-28T02:53:34;6.03;;;3.53;;
75191;SDS011;63771;52.580;9.734;2023-07-28T02:55:59;6.03;;;3.70;;
75191;SDS011;63771;52.580;9.734;2023-07-28T02:58:24;3.90;;;3.60;;
75191;SDS011;63771;52.580;9.734;2023-07-28T03:00:51;4.88;;;4.43;;
75191;SDS011;63771;52.580;9.734;2023-07-28T03:03:17;4.35;;;3.95;;
75191;SDS011;63771;52.580;9.734;2023-07-28T03:05:42;4.47;;;4.07;;
75191;SDS011;63771;52.580;9.734;2023-07-28T03:08:07;6.70;;;4.07;;
75191;SDS011;63771;52.580;9.734;2023-07-28T03:10:33;5.77;;;4.17;;
75191;SDS011;63771;52.580;9.734;2023-07-28T03:12:58;4.83;;;4.00;;
75191;SDS011;63771;52.580;9.734;2023-07-28T03:15:23;4.40;;;3.50;;
75191;SDS011;63771;52.580;9.734;2023-07-28T03:17:51;4.57;;;3.53;;
75191;SDS011;63771;52.580;9.734;2023-07-28T03:20:18;5.53;;;3.50;;
75191;SDS011;63771;52.580;9.734;2023-07-28T03:22:43;4.45;;;4.05;;
75191;SDS011;63771;52.580;9.734;2023-07-28T03:25:09;4.20;;;3.80;;
75191;SDS011;63771;52.580;9.734;2023-07-28T03:27:34;4.10;;;3.05;;
75191;SDS011;63771;52.580;9.734;2023-07-28T03:29:59;4.65;;;3.83;;
75191;SDS011;63771;52.580;9.734;2023-07-28T03:32:25;6.07;;;4.38;;
75191;SDS011;63771;52.580;9.734;2023-07-28T03:34:50;6.57;;;3.97;;
75191;SDS011;63771;52.580;9.734;2023-07-28T03:37:15;5.13;;;4.07;;
75191;SDS011;63771;52.580;9.734;2023-07-28T03:39:41;8.63;;;4.33;;
75191;SDS011;63771;52.580;9.734;2023-07-28T03:42:06;6.27;;;4.70;;
75191;SDS011;63771;52.580;9.734;2023-07-28T03:44:32;6.90;;;4.25;;
75191;SDS011;63771;52.580;9.734;2023-07-28T03:46:57;7.13;;;4.13;;
75191;SDS011;63771;52.580;9.734;2023-07-28T03:49:23;9.17;;;4.33;;
75191;SDS011;63771;52.580;9.734;2023-07-28T03:51:48;5.78;;;4.18;;
75191;SDS011;63771;52.580;9.734;2023-07-28T03:54:13;6.88;;;3.90;;
75191;SDS011;63771;52.580;9.734;2023-07-28T03:56:39;4.83;;;3.70;;
75191;SDS011;63771;52.580;9.734;2023-07-28T03:59:04;6.07;;;4.50;;
75191;SDS011;63771;52.580;9.734;2023-07-28T04:01:30;4.10;;;3.70;;
75191;SDS011;63771;52.580;9.734;2023-07-28T04:03:56;5.68;;;4.00;;
75191;SDS011;63771;52.580;9.734;2023-07-28T04:06:38;5.00;;;3.83;;
75191;SDS011;63771;52.580;9.734;2023-07-28T04:09:18;4.05;;;3.42;;
75191;SDS011;63771;52.580;9.734;2023-07-28T04:11:44;4.68;;;3.97;;
75191;SDS011;63771;52.580;9.734;2023-07-28T04:14:09;3.87;;;3.57;;
75191;SDS011;63771;52.580;9.734;2023-07-28T04:16:35;4.40;;;3.60;;
75191;SDS011;63771;52.580;9.734;2023-07-28T04:19:00;3.90;;;3.50;;
75191;SDS011;63771;52.580;9.734;2023-07-28T04:21:26;6.78;;;3.70;;
75191;SDS011;63771;52.580;9.734;2023-07-28T04:23:51;6.43;;;3.53;;
75191;SDS011;63771;52.580;9.734;2023-07-28T04:26:17;5.68;;;3.28;;
75191;SDS011;63771;52.580;9.734;2023-07-28T04:28:43;5.97;;;3.10;;
75191;SDS011;63771;52.580;9.734;2023-07-28T04:31:08;5.15;;;3.50;;
75191;SDS011;63771;52.580;9.734;2023-07-28T04:33:33;3.93;;;3.10;;
75191;SDS011;63771;52.580;9.734;2023-07-28T04:35:59;5.80;;;3.77;;
75191;SDS011;63771;52.580;9.734;2023-07-28T04:38:27;3.45;;;2.92;;
75191;SDS011;63771;52.580;9.734;2023-07-28T04:40:53;6.73;;;3.60;;
75191;SDS011;63771;52.580;9.734;2023-07-28T04:43:18;3.22;;;2.88;;
75191;SDS011;63771;52.580;9.734;2023-07-28T04:45:44;5.32;;;3.78;;
75191;SDS011;63771;52.580;9.734;2023-07-28T04:48:09;3.53;;;3.03;;
75191;SDS011;63771;52.580;9.734;2023-07-28T04:50:35;3.10;;;2.90;;
75191;SDS011;63771;52.580;9.734;2023-07-28T04:53:01;4.55;;;3.65;;
75191;SDS011;63771;52.580;9.734;2023-07-28T04:55:26;4.13;;;3.03;;
75191;SDS011;63771;52.580;9.734;2023-07-28T04:57:52;5.93;;;2.92;;
75191;SDS011;63771;52.580;9.734;2023-07-28T05:00:18;3.35;;;2.75;;
75191;SDS011;63771;52.580;9.734;2023-07-28T05:02:43;4.32;;;3.03;;
75191;SDS011;63771;52.580;9.734;2023-07-28T05:05:08;7.57;;;3.33;;
75191;SDS011;63771;52.580;9.734;2023-07-28T05:07:34;3.75;;;2.97;;
75191;SDS011;63771;52.580;9.734;2023-07-28T05:09:59;3.87;;;3.13;;
75191;SDS011;63771;52.580;9.734;2023-07-28T05:12:24;4.90;;;3.60;;
75191;SDS011;63771;52.580;9.734;2023-07-28T05:14:50;5.80;;;3.92;;
75191;SDS011;63771;52.580;9.734;2023-07-28T05:17:15;4.47;;;3.25;;
75191;SDS011;63771;52.580;9.734;2023-07-28T05:19:40;3.90;;;3.50;;
75191;SDS011;63771;52.580;9.734;2023-07-28T05:22:06;4.05;;;3.28;;
75191;SDS011;63771;52.580;9.734;2023-07-28T05:24:31;9.23;;;3.90;;
75191;SDS011;63771;52.580;9.734;2023-07-28T05:26:58;3.97;;;3.53;;
75191;SDS011;63771;52.580;9.734;2023-07-28T05:29:23;5.37;;;3.87;;
75191;SDS011;63771;52.580;9.734;2023-07-28T05:31:48;4.50;;;4.03;;
75191;SDS011;63771;52.580;9.734;2023-07-28T05:34:13;4.77;;;3.70;;
75191;SDS011;63771;52.580;9.734;2023-07-28T05:36:39;5.30;;;3.60;;
75191;SDS011;63771;52.580;9.734;2023-07-28T05:39:05;5.20;;;3.90;;
75191;SDS011;63771;52.580;9.734;2023-07-28T05:41:30;7.13;;;4.60;;
75191;SDS011;63771;52.580;9.734;2023-07-28T05:43:55;5.70;;;4.67;;
75191;SDS011;63771;52.580;9.734;2023-07-28T05:46:21;9.63;;;5.07;;
75191;SDS011;63771;52.580;9.734;2023-07-28T05:48:46;6.37;;;4.43;;
75191;SDS011;63771;52.580;9.734;2023-07-28T05:51:11;7.63;;;4.73;;
75191;SDS011;63771;52.580;9.734;2023-07-28T05:53:36;6.27;;;4.37;;
75191;SDS011;63771;52.580;9.734;2023-07-28T05:56:02;7.00;;;4.13;;
75191;SDS011;63771;52.580;9.734;2023-07-28T05:58:27;4.90;;;4.25;;
75191;SDS011;63771;52.580;9.734;2023-07-28T06:00:53;5.47;;;4.20;;
75191;SDS011;63771;52.580;9.734;2023-07-28T06:03:18;7.10;;;4.78;;
75191;SDS011;63771;52.580;9.734;2023-07-28T06:05:43;7.73;;;4.80;;
75191;SDS011;63771;52.580;9.734;2023-07-28T06:08:09;7.63;;;4.30;;
75191;SDS011;63771;52.580;9.734;2023-07-28T06:10:34;5.70;;;4.10;;
75191;SDS011;63771;52.580;9.734;2023-07-28T06:13:00;5.93;;;3.88;;
75191;SDS011;63771;52.580;9.734;2023-07-28T06:15:25;5.82;;;4.47;;
75191;SDS011;63771;52.580;9.734;2023-07-28T06:17:51;7.53;;;4.30;;
75191;SDS011;63771;52.580;9.734;2023-07-28T06:20:16;4.78;;;4.15;;
75191;SDS011;63771;52.580;9.734;2023-07-28T06:22:42;4.87;;;3.90;;
75191;SDS011;63771;52.580;9.734;2023-07-28T06:25:07;6.07;;;3.20;;
75191;SDS011;63771;52.580;9.734;2023-07-28T06:27:33;4.28;;;3.10;;
75191;SDS011;63771;52.580;9.734;2023-07-28T06:29:58;4.20;;;3.80;;
75191;SDS011;63771;52.580;9.734;2023-07-28T06:32:23;4.67;;;3.40;;
75191;SDS011;63771;52.580;9.734;2023-07-28T06:34:49;3.45;;;3.10;;
75191;SDS011;63771;52.580;9.734;2023-07-28T06:37:15;7.30;;;3.80;;
75191;SDS011;63771;52.580;9.734;2023-07-28T06:39:41;3.72;;;3.42;;
75191;SDS011;63771;52.580;9.734;2023-07-28T06:42:07;10.57;;;3.85;;
75191;SDS011;63771;52.580;9.734;2023-07-28T06:44:32;5.43;;;3.35;;
75191;SDS011;63771;52.580;9.734;2023-07-28T06:46:58;5.00;;;3.17;;
75191;SDS011;63771;52.580;9.734;2023-07-28T06:49:23;5.20;;;3.10;;
75191;SDS011;63771;52.580;9.734;2023-07-28T06:51:48;3.23;;;2.93;;
75191;SDS011;63771;52.580;9.734;2023-07-28T06:54:14;3.03;;;2.80;;
75191;SDS011;63771;52.580;9.734;2023-07-28T06:56:39;4.78;;;3.22;;
75191;SDS011;63771;52.580;9.734;2023-07-28T06:59:06;3.20;;;3.00;;
75191;SDS011;63771;52.580;9.734;2023-07-28T07:01:32;3.30;;;3.00;;
75191;SDS011;63771;52.580;9.734;2023-07-28T07:03:57;9.50;;;3.92;;
75191;SDS011;63771;52.580;9.734;2023-07-28T07:06:23;3.97;;;2.77;;
75191;SDS011;63771;52.580;9.734;2023-07-28T07:08:48;6.73;;;4.17;;
75191;SDS011;63771;52.580;9.734;2023-07-28T07:11:13;3.87;;;3.10;;
75191;SDS011;63771;52.580;9.734;2023-07-28T07:13:39;2.97;;;2.30;;
75191;SDS011;63771;52.580;9.734;2023-07-28T07:16:05;3.33;;;3.07;;
75191;SDS011;63771;52.580;9.734;2023-07-28T07:18:31;3.42;;;3.00;;
75191;SDS011;63771;52.580;9.734;2023-07-28T07:21:00;3.03;;;2.42;;
75191;SDS011;63771;52.580;9.734;2023-07-28T07:23:27;3.85;;;3.13;;
75191;SDS011;63771;52.580;9.734;2023-07-28T07:25:53;12.13;;;3.43;;
75191;SDS011;63771;52.580;9.734;2023-07-28T07:28:18;2.88;;;2.67;;
75191;SDS011;63771;52.580;9.734;2023-07-28T07:30:44;2.63;;;2.33;;
75191;SDS011;63771;52.580;9.734;2023-07-28T07:33:09;5.85;;;3.10;;
75191;SDS011;63771;52.580;9.734;2023-07-28T07:35:35;3.43;;;2.30;;
75191;SDS011;63771;52.580;9.734;2023-07-28T07:38:02;8.55;;;2.35;;
75191;SDS011;63771;52.580;9.734;2023-07-28T07:40:28;2.65;;;2.50;;
75191;SDS011;63771;52.580;9.734;2023-07-28T07:42:53;4.60;;;2.60;;
75191;SDS011;63771;52.580;9.734;2023-07-28T07:45:19;3.23;;;2.30;;
75191;SDS011;63771;52.580;9.734;2023-07-28T07:47:44;6.65;;;2.13;;
75191;SDS011;63771;52.580;9.734;2023-07-28T07:50:10;3.38;;;3.05;;
75191;SDS011;63771;52.580;9.734;2023-07-28T07:52:36;2.33;;;2.13;;
75191;SDS011;63771;52.580;9.734;2023-07-28T07:55:02;2.53;;;2.33;;
75191;SDS011;63771;52.580;9.734;2023-07-28T07:57:28;2.65;;;2.30;;
75191;SDS011;63771;52.580;9.734;2023-07-28T07:59:54;4.57;;;2.47;;
75191;SDS011;63771;52.580;9.734;2023-07-28T08:02:20;3.85;;;2.72;;
75191;SDS011;63771;52.580;9.734;2023-07-28T08:04:45;2.97;;;2.77;;
75191;SDS011;63771;52.580;9.734;2023-07-28T08:07:11;3.63;;;3.20;;
75191;SDS011;63771;52.580;9.734;2023-07-28T08:09:36;2.85;;;2.65;;
75191;SDS011;63771;52.580;9.734;2023-07-28T08:12:02;3.25;;;2.85;;
75191;SDS011;63771;52.580;9.734;2023-07-28T08:14:28;3.85;;;3.08;;
75191;SDS011;63771;52.580;9.734;2023-07-28T08:16:53;3.55;;;3.10;;
75191;SDS011;63771;52.580;9.734;2023-07-28T08:19:18;3.47;;;3.17;;
75191;SDS011;63771;52.580;9.734;2023-07-28T08:21:44;3.92;;;3.45;;
75191;SDS011;63771;52.580;9.734;2023-07-28T08:24:09;3.60;;;3.30;;
75191;SDS011;63771;52.580;9.734;2023-07-28T08:26:36;6.07;;;3.83;;
75191;SDS011;63771;52.580;9.734;2023-07-28T08:29:01;3.20;;;3.00;;
75191;SDS011;63771;52.580;9.734;2023-07-28T08:31:26;3.30;;;3.00;;
75191;SDS011;63771;52.580;9.734;2023-07-28T08:33:52;3.25;;;3.05;;
75191;SDS011;63771;52.580;9.734;2023-07-28T08:36:17;3.88;;;2.97;;
75191;SDS011;63771;52.580;9.734;2023-07-28T08:38:42;6.20;;;3.30;;
75191;SDS011;63771;52.580;9.734;2023-07-28T08:41:10;3.55;;;3.25;;
75191;SDS011;63771;52.580;9.734;2023-07-28T08:43:35;3.33;;;3.03;;
75191;SDS011;63771;52.580;9.734;2023-07-28T08:46:00;3.97;;;3.67;;
75191;SDS011;63771;52.580;9.734;2023-07-28T08:48:26;3.50;;;3.20;;
75191;SDS011;63771;52.580;9.734;2023-07-28T08:50:52;3.08;;;2.88;;
75191;SDS011;63771;52.580;9.734;2023-07-28T08:53:18;5.13;;;3.38;;
75191;SDS011;63771;52.580;9.734;2023-07-28T08:55:43;4.97;;;3.33;;
75191;SDS011;63771;52.580;9.734;2023-07-28T08:58:15;4.03;;;3.63;;
75191;SDS011;63771;52.580;9.734;2023-07-28T09:00:41;5.68;;;4.05;;
75191;SDS011;63771;52.580;9.734;2023-07-28T09:03:10;4.38;;;3.95;;
75191;SDS011;63771;52.580;9.734;2023-07-28T09:05:35;3.63;;;3.33;;
75191;SDS011;63771;52.580;9.734;2023-07-28T09:08:00;4.07;;;3.45;;
75191;SDS011;63771;52.580;9.734;2023-07-28T09:10:32;3.70;;;3.30;;
75191;SDS011;63771;52.580;9.734;2023-07-28T09:13:09;3.40;;;3.10;;
75191;SDS011;63771;52.580;9.734;2023-07-28T09:15:36;4.88;;;3.97;;
75191;SDS011;63771;52.580;9.734;2023-07-28T09:18:01;3.97;;;3.53;;
75191;SDS011;63771;52.580;9.734;2023-07-28T09:20:32;3.60;;;3.30;;
75191;SDS011;63771;52.580;9.734;2023-07-28T09:23:00;3.78;;;3.50;;
75191;SDS011;63771;52.580;9.734;2023-07-28T09:25:25;3.78;;;3.42;;
75191;SDS011;63771;52.580;9.734;2023-07-28T09:27:54;5.63;;;3.53;;
75191;SDS011;63771;52.580;9.734;2023-07-28T09:30:20;4.40;;;4.00;;
75191;SDS011;63771;52.580;9.734;2023-07-28T09:32:50;3.97;;;3.67;;
75191;SDS011;63771;52.580;9.734;2023-07-28T09:35:17;5.30;;;3.75;;
75191;SDS011;63771;52.580;9.734;2023-07-28T09:37:46;3.95;;;3.67;;
75191;SDS011;63771;52.580;9.734;2023-07-28T09:40:14;4.47;;;4.10;;
75191;SDS011;63771;52.580;9.734;2023-07-28T09:42:42;2.90;;;2.72;;
75191;SDS011;63771;52.580;9.734;2023-07-28T09:45:09;3.53;;;3.33;;
75191;SDS011;63771;52.580;9.734;2023-07-28T09:47:36;3.60;;;3.40;;
75191;SDS011;63771;52.580;9.734;2023-07-28T09:50:03;3.80;;;3.42;;
75191;SDS011;63771;52.580;9.734;2023-07-28T09:55:03;3.75;;;3.45;;
75191;SDS011;63771;52.580;9.734;2023-07-28T09:57:31;3.47;;;3.25;;
75191;SDS011;63771;52.580;9.734;2023-07-28T10:00:01;4.80;;;3.78;;
75191;SDS011;63771;52.580;9.734;2023-07-28T10:02:27;3.42;;;3.13;;
75191;SDS011;63771;52.580;9.734;2023-07-28T10:04:53;3.30;;;3.10;;
75191;SDS011;63771;52.580;9.734;2023-07-28T10:07:19;4.20;;;3.17;;
75191;SDS011;63771;52.580;9.734;2023-07-28T10:09:46;3.17;;;2.97;;
75191;SDS011;63771;52.580;9.734;2023-07-28T10:12:18;3.25;;;3.05;;
75191;SDS011;63771;52.580;9.734;2023-07-28T10:14:50;3.30;;;3.00;;
75191;SDS011;63771;52.580;9.734;2023-07-28T10:17:30;3.20;;;2.90;;
75191;SDS011;63771;52.580;9.734;2023-07-28T10:19:57;3.47;;;2.72;;
75191;SDS011;63771;52.580;9.734;2023-07-28T10:22:23;3.53;;;3.10;;
75191;SDS011;63771;52.580;9.734;2023-07-28T10:27:28;2.83;;;2.65;;
75191;SDS011;63771;52.580;9.734;2023-07-28T10:29:58;3.20;;;3.00;;
75191;SDS011;63771;52.580;9.734;2023-07-28T10:32:27;3.42;;;3.13;;
75191;SDS011;63771;52.580;9.734;2023-07-28T10:35:09;3.60;;;3.20;;
75191;SDS011;63771;52.580;9.734;2023-07-28T10:37:48;3.40;;;3.10;;
75191;SDS011;63771;52.580;9.734;2023-07-28T10:40:32;3.40;;;2.78;;
75191;SDS011;63771;52.580;9.734;2023-07-28T10:42:59;3.85;;;3.25;;
75191;SDS011;63771;52.580;9.734;2023-07-28T10:45:27;2.70;;;2.50;;
75191;SDS011;63771;52.580;9.734;2023-07-28T10:47:54;2.80;;;2.60;;
75191;SDS011;63771;52.580;9.734;2023-07-28T10:50:28;4.53;;;2.90;;
75191;SDS011;63771;52.580;9.734;2023-07-28T10:52:57;3.08;;;2.83;;
75191;SDS011;63771;52.580;9.734;2023-07-28T10:55:23;3.10;;;2.50;;
75191;SDS011;63771;52.580;9.734;2023-07-28T11:00:17;2.50;;;2.40;;
75191;SDS011;63771;52.580;9.734;2023-07-28T11:02:47;2.92;;;2.60;;
75191;SDS011;63771;52.580;9.734;2023-07-28T11:05:18;2.45;;;2.25;;
75191;SDS011;63771;52.580;9.734;2023-07-28T11:07:45;2.70;;;2.50;;
75191;SDS011;63771;52.580;9.734;2023-07-28T11:10:11;2.90;;;2.40;;
75191;SDS011;63771;52.580;9.734;2023-07-28T11:12:41;2.75;;;2.22;;
75191;SDS011;63771;52.580;9.734;2023-07-28T11:15:09;2.65;;;2.45;;
75191;SDS011;63771;52.580;9.734;2023-07-28T11:17:41;3.58;;;2.22;;
75191;SDS011;63771;52.580;9.734;2023-07-28T11:22:44;2.60;;;2.40;;
75191;SDS011;63771;52.580;9.734;2023-07-28T11:25:11;2.20;;;2.10;;
75191;SDS011;63771;52.580;9.734;2023-07-28T11:27:38;2.03;;;1.92;;
75191;SDS011;63771;52.580;9.734;2023-07-28T11:30:04;2.47;;;2.30;;
75191;SDS011;63771;52.580;9.734;2023-07-28T11:35:03;2.78;;;2.38;;
75191;SDS011;63771;52.580;9.734;2023-07-28T11:39:59;3.28;;;2.67;;
75191;SDS011;63771;52.580;9.734;2023-07-28T11:42:29;2.60;;;1.92;;
75191;SDS011;63771;52.580;9.734;2023-07-28T11:44:55;2.50;;;2.40;;
75191;SDS011;63771;52.580;9.734;2023-07-28T11:47:21;2.35;;;2.25;;
75191;SDS011;63771;52.580;9.734;2023-07-28T11:49:47;2.73;;;2.50;;
75191;SDS011;63771;52.580;9.734;2023-07-28T11:52:13;2.55;;;2.45;;
75191;SDS011;63771;52.580;9.734;2023-07-28T11:54:38;4.38;;;2.47;;
75191;SDS011;63771;52.580;9.734;2023-07-28T11:57:03;3.05;;;2.20;;
75191;SDS011;63771;52.580;9.734;2023-07-28T11:59:34;3.78;;;2.42;;
75191;SDS011;63771;52.580;9.734;2023-07-28T12:02:03;4.15;;;2.63;;
75191;SDS011;63771;52.580;9.734;2023-07-28T12:04:38;2.47;;;2.17;;
75191;SDS011;63771;52.580;9.734;2023-07-28T12:07:15;4.13;;;2.50;;
75191;SDS011;63771;52.580;9.734;2023-07-28T12:12:14;1.98;;;1.88;;
75191;SDS011;63771;52.580;9.734;2023-07-28T12:14:40;2.70;;;2.13;;
75191;SDS011;63771;52.580;9.734;2023-07-28T12:17:19;2.75;;;1.95;;
75191;SDS011;63771;52.580;9.734;2023-07-28T12:19:55;2.78;;;2.60;;
75191;SDS011;63771;52.580;9.734;2023-07-28T12:22:27;2.28;;;2.17;;
75191;SDS011;63771;52.580;9.734;2023-07-28T12:24:56;3.55;;;1.90;;
75191;SDS011;63771;52.580;9.734;2023-07-28T12:27:21;2.20;;;2.10;;
75191;SDS011;63771;52.580;9.734;2023-07-28T12:29:51;2.38;;;2.17;;
75191;SDS011;63771;52.580;9.734;2023-07-28T12:32:16;2.10;;;2.00;;
75191;SDS011;63771;52.580;9.734;2023-07-28T12:34:42;2.88;;;2.05;;
75191;SDS011;63771;52.580;9.734;2023-07-28T12:37:07;4.03;;;2.20;;
75191;SDS011;63771;52.580;9.734;2023-07-28T12:39:35;3.00;;;2.10;;
75191;SDS011;63771;52.580;9.734;2023-07-28T12:42:04;5.07;;;1.85;;
75191;SDS011;63771;52.580;9.734;2023-07-28T12:44:30;2.35;;;2.15;;
75191;SDS011;63771;52.580;9.734;2023-07-28T12:46:55;2.23;;;2.13;;
75191;SDS011;63771;52.580;9.734;2023-07-28T12:49:21;2.40;;;2.20;;
75191;SDS011;63771;52.580;9.734;2023-07-28T12:51:46;2.30;;;2.10;;
75191;SDS011;63771;52.580;9.734;2023-07-28T12:54:11;3.00;;;2.00;;
75191;SDS011;63771;52.580;9.734;2023-07-28T12:56:37;2.40;;;2.30;;
75191;SDS011;63771;52.580;9.734;2023-07-28T12:59:02;3.27;;;2.60;;
75191;SDS011;63771;52.580;9.734;2023-07-28T13:01:27;2.30;;;2.20;;
75191;SDS011;63771;52.580;9.734;2023-07-28T13:03:53;2.67;;;2.47;;
75191;SDS011;63771;52.580;9.734;2023-07-28T13:06:18;4.32;;;2.17;;
75191;SDS011;63771;52.580;9.734;2023-07-28T13:08:44;2.47;;;2.30;;
75191;SDS011;63771;52.580;9.734;2023-07-28T13:11:09;2.50;;;2.00;;
75191;SDS011;63771;52.580;9.734;2023-07-28T13:13:35;2.60;;;2.40;;
75191;SDS011;63771;52.580;9.734;2023-07-28T13:16:00;3.45;;;2.95;;
75191;SDS011;63771;52.580;9.734;2023-07-28T13:18:26;2.47;;;2.30;;
75191;SDS011;63771;52.580;9.734;2023-07-28T13:20:51;3.03;;;2.83;;
75191;SDS011;63771;52.580;9.734;2023-07-28T13:23:16;4.80;;;3.17;;
75191;SDS011;63771;52.580;9.734;2023-07-28T13:25:42;2.92;;;2.72;;
75191;SDS011;63771;52.580;9.734;2023-07-28T13:28:07;2.47;;;2.37;;
75191;SDS011;63771;52.580;9.734;2023-07-28T13:30:32;2.70;;;2.53;;
75191;SDS011;63771;52.580;9.734;2023-07-28T13:32:58;3.65;;;3.35;;
75191;SDS011;63771;52.580;9.734;2023-07-28T13:35:23;3.17;;;2.88;;
75191;SDS011;63771;52.580;9.734;2023-07-28T13:37:49;3.15;;;2.95;;
75191;SDS011;63771;52.580;9.734;2023-07-28T13:40:16;2.90;;;2.70;;
75191;SDS011;63771;52.580;9.734;2023-07-28T13:42:41;3.47;;;3.05;;
75191;SDS011;63771;52.580;9.734;2023-07-28T13:45:07;2.87;;;2.67;;
75191;SDS011;63771;52.580;9.734;2023-07-28T13:47:33;2.85;;;2.65;;
75191;SDS011;63771;52.580;9.734;2023-07-28T13:49:59;3.08;;;2.45;;
75191;SDS011;63771;52.580;9.734;2023-07-28T13:52:24;3.38;;;3.17;;
75191;SDS011;63771;52.580;9.734;2023-07-28T13:54:50;3.20;;;2.50;;
75191;SDS011;63771;52.580;9.734;2023-07-28T13:57:15;5.30;;;2.37;;
75191;SDS011;63771;52.580;9.734;2023-07-28T13:59:40;2.53;;;2.33;;
75191;SDS011;63771;52.580;9.734;2023-07-28T14:02:06;2.80;;;2.10;;
75191;SDS011;63771;52.580;9.734;2023-07-28T14:04:31;2.33;;;2.22;;
75191;SDS011;63771;52.580;9.734;2023-07-28T14:06:57;2.38;;;2.20;;
75191;SDS011;63771;52.580;9.734;2023-07-28T14:09:23;2.40;;;2.20;;
75191;SDS011;63771;52.580;9.734;2023-07-28T14:11:49;2.50;;;2.40;;
75191;SDS011;63771;52.580;9.734;2023-07-28T14:14:14;4.37;;;2.90;;
75191;SDS011;63771;52.580;9.734;2023-07-28T14:16:39;3.13;;;2.70;;
75191;SDS011;63771;52.580;9.734;2023-07-28T14:19:05;2.57;;;2.37;;
75191;SDS011;63771;52.580;9.734;2023-07-28T14:21:30;2.07;;;1.97;;
75191;SDS011;63771;52.580;9.734;2023-07-28T14:23:55;2.80;;;2.33;;
75191;SDS011;63771;52.580;9.734;2023-07-28T14:26:21;2.50;;;2.30;;
75191;SDS011;63771;52.580;9.734;2023-07-28T14:28:46;2.17;;;2.08;;
75191;SDS011;63771;52.580;9.734;2023-07-28T14:31:11;2.60;;;2.40;;
75191;SDS011;63771;52.580;9.734;2023-07-28T14:33:36;2.77;;;2.20;;
75191;SDS011;63771;52.580;9.734;2023-07-28T14:36:02;2.50;;;2.40;;
75191;SDS011;63771;52.580;9.734;2023-07-28T14:38:27;2.25;;;2.05;;
75191;SDS011;63771;52.580;9.734;2023-07-28T14:40:53;2.63;;;2.53;;
75191;SDS011;63771;52.580;9.734;2023-07-28T14:43:18;2.78;;;2.58;;
75191;SDS011;63771;52.580;9.734;2023-07-28T14:45:44;2.50;;;1.90;;
75191;SDS011;63771;52.580;9.734;2023-07-28T14:48:09;4.65;;;3.63;;
75191;SDS011;63771;52.580;9.734;2023-07-28T14:50:35;4.45;;;3.05;;
75191;SDS011;63771;52.580;9.734;2023-07-28T14:53:00;5.30;;;3.40;;
75191;SDS011;63771;52.580;9.734;2023-07-28T14:55:26;3.45;;;3.20;;
75191;SDS011;63771;52.580;9.734;2023-07-28T14:57:51;4.75;;;3.35;;
75191;SDS011;63771;52.580;9.734;2023-07-28T15:00:17;6.83;;;3.87;;
75191;SDS011;63771;52.580;9.734;2023-07-28T15:02:43;9.35;;;4.80;;